Kandilli — TCAZ — position and weather

sailwx.info

Track history (hours):
 
Tides and Currents Weather Stations Pressure Air Temp Water Temp Dewpoint Dewpoint Depression Visibility Wind Speed Wind Dir Waves Ship Positions

Kandilli

Last reported at 2014-Jul-29 18:28 UTC. Time now 2014-Aug-01 07:46 UTC.
Position N 36°37' E 027°29'.

Length 100 m; draft 5.9 m.

Type: Ship (hazmat cat C). MMSI: 271000334.

Date/timePositionNaut miles runAvg speedWind from/ knotsBaromVisibWave heightAir tempDewpointWater temp
2014-Jul-29 18:28N 36°37' E 027°29'3311.2
2014-Jul-29 15:33N 37°03' E 027°03'2713.5
2014-Jul-29 13:33N 37°26' E 026°46'1313.6
2014-Jul-29 12:34N 37°37' E 026°36'2713.3
2014-Jul-29 10:33N 38°00' E 026°20'102 3.1
2014-Jul-28 01:29N 39°39' E 025°45'1313.9
2014-Jul-28 00:33N 39°51' E 025°50'4414.6
2014-Jul-27 21:31N 40°19' E 026°36'  
2014-Jul-24 12:16N 40°44' E 029°25'811.0
2014-Jul-24 11:33N 40°46' E 029°15'1413.3
2014-Jul-24 10:32N 40°52' E 028°58'31210.0
2014-Jul-23 03:09N 45°54' E 030°46'813.2
2014-Jul-23 02:34N 46°02' E 030°49'29 1.4
2014-Jul-22 05:21N 46°31' E 030°44'0 0.0
2014-Jul-22 03:24N 46°31' E 030°44'6 6.6
2014-Jul-22 02:33N 46°28' E 030°51'3 0.9
2014-Jul-21 23:10N 46°26' E 030°54'0 0.0
2014-Jul-21 18:22N 46°26' E 030°54'0 0.0
2014-Jul-21 17:31N 46°26' E 030°54'0 0.0
2014-Jul-20 23:31N 46°26' E 030°54'4 1.8
2014-Jul-20 21:06N 46°21' E 030°53'813.6
2014-Jul-20 20:33N 46°15' E 030°59'1414.4
2014-Jul-20 19:33N 46°05' E 031°14'17414.3
2014-Jul-20 07:22N 43°59' E 034°04'  
Track history (hours):
 
Tides and Currents Weather Stations Pressure Air Temp Water Temp Dewpoint Dewpoint Depression Visibility Wind Speed Wind Dir Waves Ship Positions

Kandilli

Last reported at 2014-Jul-29 18:28 UTC. Time now 2014-Aug-01 07:46 UTC.
Position N 36°37' E 027°29'.

Length 100 m; draft 5.9 m.

Type: Ship (hazmat cat C). MMSI: 271000334.

Date/timePositionNaut miles runAvg speedWind from/ knotsBaromVisibWave heightAir tempDewpointWater temp
2014-Jul-29 18:28N 36°37' E 027°29'3311.2
2014-Jul-29 15:33N 37°03' E 027°03'2713.5
2014-Jul-29 13:33N 37°26' E 026°46'1313.6
2014-Jul-29 12:34N 37°37' E 026°36'2713.3
2014-Jul-29 10:33N 38°00' E 026°20'102 3.1
2014-Jul-28 01:29N 39°39' E 025°45'1313.9
2014-Jul-28 00:33N 39°51' E 025°50'4414.6
2014-Jul-27 21:31N 40°19' E 026°36'  
2014-Jul-24 12:16N 40°44' E 029°25'811.0
2014-Jul-24 11:33N 40°46' E 029°15'1413.3
2014-Jul-24 10:32N 40°52' E 028°58'31210.0
2014-Jul-23 03:09N 45°54' E 030°46'813.2
2014-Jul-23 02:34N 46°02' E 030°49'29 1.4
2014-Jul-22 05:21N 46°31' E 030°44'0 0.0
2014-Jul-22 03:24N 46°31' E 030°44'6 6.6
2014-Jul-22 02:33N 46°28' E 030°51'3 0.9
2014-Jul-21 23:10N 46°26' E 030°54'0 0.0
2014-Jul-21 18:22N 46°26' E 030°54'0 0.0
2014-Jul-21 17:31N 46°26' E 030°54'0 0.0
2014-Jul-20 23:31N 46°26' E 030°54'4 1.8
2014-Jul-20 21:06N 46°21' E 030°53'813.6
2014-Jul-20 20:33N 46°15' E 030°59'1414.4
2014-Jul-20 19:33N 46°05' E 031°14'17414.3
2014-Jul-20 07:22N 43°59' E 034°04'  

Dump ship's entire track history